sensor_id;sensor_type;location;lat;lon;timestamp;P1;durP1;ratioP1;P2;durP2;ratioP2
60225;SDS011;46090;48.436;11.410;2022-09-09T00:02:21;2.17;;;0.70;;
60225;SDS011;46090;48.436;11.410;2022-09-09T00:10:37;4.70;;;1.05;;
60225;SDS011;46090;48.436;11.410;2022-09-09T00:13:28;2.28;;;0.60;;
60225;SDS011;46090;48.436;11.410;2022-09-09T00:18:44;3.47;;;0.80;;
60225;SDS011;46090;48.436;11.410;2022-09-09T00:21:19;3.17;;;1.00;;
60225;SDS011;46090;48.436;11.410;2022-09-09T00:23:52;2.90;;;0.90;;
60225;SDS011;46090;48.436;11.410;2022-09-09T00:31:38;4.07;;;1.05;;
60225;SDS011;46090;48.436;11.410;2022-09-09T00:36:41;2.23;;;0.90;;
60225;SDS011;46090;48.436;11.410;2022-09-09T00:39:13;3.70;;;0.80;;
60225;SDS011;46090;48.436;11.410;2022-09-09T00:42:33;4.72;;;1.00;;
60225;SDS011;46090;48.436;11.410;2022-09-09T00:44:52;3.28;;;0.75;;
60225;SDS011;46090;48.436;11.410;2022-09-09T00:55:45;3.58;;;1.00;;
60225;SDS011;46090;48.436;11.410;2022-09-09T00:58:25;3.70;;;0.98;;
60225;SDS011;46090;48.436;11.410;2022-09-09T01:00:57;3.65;;;1.17;;
60225;SDS011;46090;48.436;11.410;2022-09-09T01:04:02;3.17;;;0.80;;
60225;SDS011;46090;48.436;11.410;2022-09-09T01:06:32;2.60;;;0.93;;
60225;SDS011;46090;48.436;11.410;2022-09-09T01:12:14;4.13;;;0.90;;
60225;SDS011;46090;48.436;11.410;2022-09-09T01:14:49;5.20;;;1.17;;
60225;SDS011;46090;48.436;11.410;2022-09-09T01:23:04;1.40;;;0.50;;
60225;SDS011;46090;48.436;11.410;2022-09-09T01:26:16;2.67;;;0.63;;
60225;SDS011;46090;48.436;11.410;2022-09-09T01:28:47;2.17;;;0.70;;
60225;SDS011;46090;48.436;11.410;2022-09-09T01:31:22;3.78;;;0.70;;
60225;SDS011;46090;48.436;11.410;2022-09-09T01:33:54;2.47;;;1.00;;
60225;SDS011;46090;48.436;11.410;2022-09-09T01:36:27;2.17;;;0.80;;
60225;SDS011;46090;48.436;11.410;2022-09-09T01:38:58;2.28;;;0.90;;
60225;SDS011;46090;48.436;11.410;2022-09-09T01:41:26;4.55;;;1.10;;
60225;SDS011;46090;48.436;11.410;2022-09-09T01:44:00;3.55;;;0.80;;
60225;SDS011;46090;48.436;11.410;2022-09-09T01:46:29;1.92;;;0.68;;
60225;SDS011;46090;48.436;11.410;2022-09-09T01:48:57;2.17;;;0.68;;
60225;SDS011;46090;48.436;11.410;2022-09-09T01:51:27;1.67;;;0.60;;
60225;SDS011;46090;48.436;11.410;2022-09-09T01:53:56;2.88;;;1.10;;
60225;SDS011;46090;48.436;11.410;2022-09-09T02:02:33;5.43;;;1.13;;
60225;SDS011;46090;48.436;11.410;2022-09-09T02:05:30;2.28;;;0.90;;
60225;SDS011;46090;48.436;11.410;2022-09-09T02:08:18;2.78;;;1.02;;
60225;SDS011;46090;48.436;11.410;2022-09-09T02:13:53;2.60;;;1.00;;
60225;SDS011;46090;48.436;11.410;2022-09-09T02:19:06;2.47;;;1.17;;
60225;SDS011;46090;48.436;11.410;2022-09-09T02:21:47;3.30;;;1.10;;
60225;SDS011;46090;48.436;11.410;2022-09-09T02:24:16;3.30;;;0.98;;
60225;SDS011;46090;48.436;11.410;2022-09-09T02:26:50;2.20;;;0.87;;
60225;SDS011;46090;48.436;11.410;2022-09-09T02:29:25;3.70;;;1.00;;
60225;SDS011;46090;48.436;11.410;2022-09-09T02:31:57;3.50;;;1.33;;
60225;SDS011;46090;48.436;11.410;2022-09-09T02:34:35;2.67;;;0.98;;
60225;SDS011;46090;48.436;11.410;2022-09-09T02:37:06;3.33;;;0.73;;
60225;SDS011;46090;48.436;11.410;2022-09-09T02:39:37;2.55;;;0.98;;
60225;SDS011;46090;48.436;11.410;2022-09-09T02:42:09;2.78;;;0.90;;
60225;SDS011;46090;48.436;11.410;2022-09-09T02:44:37;3.92;;;1.30;;
60225;SDS011;46090;48.436;11.410;2022-09-09T02:50:22;3.70;;;1.17;;
60225;SDS011;46090;48.436;11.410;2022-09-09T02:52:58;3.22;;;0.85;;
60225;SDS011;46090;48.436;11.410;2022-09-09T02:58:14;3.60;;;1.15;;
60225;SDS011;46090;48.436;11.410;2022-09-09T03:00:53;5.32;;;1.25;;
60225;SDS011;46090;48.436;11.410;2022-09-09T03:03:23;4.55;;;1.50;;
60225;SDS011;46090;48.436;11.410;2022-09-09T03:05:52;4.55;;;1.00;;
60225;SDS011;46090;48.436;11.410;2022-09-09T03:08:20;5.63;;;1.38;;
60225;SDS011;46090;48.436;11.410;2022-09-09T03:10:48;2.88;;;1.10;;
60225;SDS011;46090;48.436;11.410;2022-09-09T03:13:19;3.45;;;1.13;;
60225;SDS011;46090;48.436;11.410;2022-09-09T03:15:47;5.30;;;1.48;;
60225;SDS011;46090;48.436;11.410;2022-09-09T03:18:18;3.50;;;0.90;;
60225;SDS011;46090;48.436;11.410;2022-09-09T03:20:49;3.13;;;0.82;;
60225;SDS011;46090;48.436;11.410;2022-09-09T03:23:20;2.63;;;0.90;;
60225;SDS011;46090;48.436;11.410;2022-09-09T03:25:49;3.70;;;1.38;;
60225;SDS011;46090;48.436;11.410;2022-09-09T03:28:20;4.57;;;1.20;;
60225;SDS011;46090;48.436;11.410;2022-09-09T03:30:48;3.47;;;1.10;;
60225;SDS011;46090;48.436;11.410;2022-09-09T03:33:17;3.92;;;0.82;;
60225;SDS011;46090;48.436;11.410;2022-09-09T03:35:47;3.08;;;0.95;;
60225;SDS011;46090;48.436;11.410;2022-09-09T03:38:21;2.95;;;0.93;;
60225;SDS011;46090;48.436;11.410;2022-09-09T03:40:48;3.90;;;1.05;;
60225;SDS011;46090;48.436;11.410;2022-09-09T03:43:21;2.55;;;0.90;;
60225;SDS011;46090;48.436;11.410;2022-09-09T03:45:51;2.92;;;0.90;;
60225;SDS011;46090;48.436;11.410;2022-09-09T03:48:20;4.47;;;1.10;;
60225;SDS011;46090;48.436;11.410;2022-09-09T03:50:50;4.25;;;1.02;;
60225;SDS011;46090;48.436;11.410;2022-09-09T03:53:19;6.60;;;0.80;;
60225;SDS011;46090;48.436;11.410;2022-09-09T03:55:50;3.25;;;0.80;;
60225;SDS011;46090;48.436;11.410;2022-09-09T03:58:25;4.28;;;1.40;;
60225;SDS011;46090;48.436;11.410;2022-09-09T04:00:57;3.38;;;0.93;;
60225;SDS011;46090;48.436;11.410;2022-09-09T04:03:28;3.10;;;1.10;;
60225;SDS011;46090;48.436;11.410;2022-09-09T04:05:57;2.95;;;1.25;;
60225;SDS011;46090;48.436;11.410;2022-09-09T04:08:29;3.05;;;0.90;;
60225;SDS011;46090;48.436;11.410;2022-09-09T04:11:00;3.10;;;0.73;;
60225;SDS011;46090;48.436;11.410;2022-09-09T04:13:34;2.95;;;1.13;;
60225;SDS011;46090;48.436;11.410;2022-09-09T04:16:07;4.20;;;0.85;;
60225;SDS011;46090;48.436;11.410;2022-09-09T04:18:37;2.60;;;0.90;;
60225;SDS011;46090;48.436;11.410;2022-09-09T04:21:05;3.40;;;0.77;;
60225;SDS011;46090;48.436;11.410;2022-09-09T04:23:34;2.42;;;0.90;;
60225;SDS011;46090;48.436;11.410;2022-09-09T04:26:02;4.00;;;0.80;;
60225;SDS011;46090;48.436;11.410;2022-09-09T04:28:34;3.90;;;1.00;;
60225;SDS011;46090;48.436;11.410;2022-09-09T04:31:07;3.15;;;1.05;;
60225;SDS011;46090;48.436;11.410;2022-09-09T04:33:38;4.10;;;1.10;;
60225;SDS011;46090;48.436;11.410;2022-09-09T04:36:07;3.78;;;1.00;;
60225;SDS011;46090;48.436;11.410;2022-09-09T04:38:34;2.58;;;0.82;;
60225;SDS011;46090;48.436;11.410;2022-09-09T04:41:02;4.75;;;1.25;;
60225;SDS011;46090;48.436;11.410;2022-09-09T04:43:30;2.00;;;0.93;;
60225;SDS011;46090;48.436;11.410;2022-09-09T04:46:02;10.43;;;1.92;;
60225;SDS011;46090;48.436;11.410;2022-09-09T04:48:29;3.35;;;1.00;;
60225;SDS011;46090;48.436;11.410;2022-09-09T04:51:01;5.00;;;1.08;;
60225;SDS011;46090;48.436;11.410;2022-09-09T04:53:33;3.65;;;1.20;;
60225;SDS011;46090;48.436;11.410;2022-09-09T04:58:40;3.72;;;1.00;;
60225;SDS011;46090;48.436;11.410;2022-09-09T05:01:11;4.95;;;1.25;;
60225;SDS011;46090;48.436;11.410;2022-09-09T05:03:50;2.95;;;0.80;;
60225;SDS011;46090;48.436;11.410;2022-09-09T05:06:21;3.00;;;1.10;;
60225;SDS011;46090;48.436;11.410;2022-09-09T05:08:55;2.58;;;1.13;;
60225;SDS011;46090;48.436;11.410;2022-09-09T05:11:26;3.50;;;1.20;;
60225;SDS011;46090;48.436;11.410;2022-09-09T05:14:01;4.05;;;1.08;;
60225;SDS011;46090;48.436;11.410;2022-09-09T05:16:31;3.65;;;1.00;;
60225;SDS011;46090;48.436;11.410;2022-09-09T05:18:58;3.67;;;0.90;;
60225;SDS011;46090;48.436;11.410;2022-09-09T05:21:35;5.47;;;1.48;;
60225;SDS011;46090;48.436;11.410;2022-09-09T05:24:03;4.50;;;1.10;;
60225;SDS011;46090;48.436;11.410;2022-09-09T05:26:31;7.63;;;2.67;;
60225;SDS011;46090;48.436;11.410;2022-09-09T05:28:59;6.35;;;1.27;;
60225;SDS011;46090;48.436;11.410;2022-09-09T05:31:29;4.50;;;1.23;;
60225;SDS011;46090;48.436;11.410;2022-09-09T05:34:02;5.10;;;1.23;;
60225;SDS011;46090;48.436;11.410;2022-09-09T05:36:30;2.58;;;0.90;;
60225;SDS011;46090;48.436;11.410;2022-09-09T05:38:57;3.60;;;1.50;;
60225;SDS011;46090;48.436;11.410;2022-09-09T05:41:29;4.40;;;1.52;;
60225;SDS011;46090;48.436;11.410;2022-09-09T05:44:01;2.63;;;0.80;;
60225;SDS011;46090;48.436;11.410;2022-09-09T05:46:34;4.45;;;1.20;;
60225;SDS011;46090;48.436;11.410;2022-09-09T05:49:02;3.35;;;0.90;;
60225;SDS011;46090;48.436;11.410;2022-09-09T05:51:33;2.97;;;0.82;;
60225;SDS011;46090;48.436;11.410;2022-09-09T05:54:10;3.47;;;1.08;;
60225;SDS011;46090;48.436;11.410;2022-09-09T05:56:43;5.53;;;1.10;;
60225;SDS011;46090;48.436;11.410;2022-09-09T05:59:14;4.68;;;1.35;;
60225;SDS011;46090;48.436;11.410;2022-09-09T06:01:42;3.78;;;1.20;;
60225;SDS011;46090;48.436;11.410;2022-09-09T06:04:21;5.03;;;1.40;;
60225;SDS011;46090;48.436;11.410;2022-09-09T06:06:50;3.92;;;1.38;;
60225;SDS011;46090;48.436;11.410;2022-09-09T06:09:21;7.97;;;1.77;;
60225;SDS011;46090;48.436;11.410;2022-09-09T06:11:49;4.45;;;1.50;;
60225;SDS011;46090;48.436;11.410;2022-09-09T06:14:17;4.82;;;1.40;;
60225;SDS011;46090;48.436;11.410;2022-09-09T06:16:49;4.60;;;1.10;;
60225;SDS011;46090;48.436;11.410;2022-09-09T06:19:20;5.00;;;1.65;;
60225;SDS011;46090;48.436;11.410;2022-09-09T06:21:49;3.78;;;1.25;;
60225;SDS011;46090;48.436;11.410;2022-09-09T06:24:17;4.97;;;1.50;;
60225;SDS011;46090;48.436;11.410;2022-09-09T06:26:46;4.60;;;1.30;;
60225;SDS011;46090;48.436;11.410;2022-09-09T06:29:20;7.57;;;1.40;;
60225;SDS011;46090;48.436;11.410;2022-09-09T06:31:49;3.38;;;1.73;;
60225;SDS011;46090;48.436;11.410;2022-09-09T06:34:21;5.45;;;1.30;;
60225;SDS011;46090;48.436;11.410;2022-09-09T06:36:54;3.60;;;1.52;;
60225;SDS011;46090;48.436;11.410;2022-09-09T06:39:25;5.88;;;1.30;;
60225;SDS011;46090;48.436;11.410;2022-09-09T06:41:53;4.68;;;1.02;;
60225;SDS011;46090;48.436;11.410;2022-09-09T06:44:40;5.07;;;1.30;;
60225;SDS011;46090;48.436;11.410;2022-09-09T06:47:12;6.20;;;2.00;;
60225;SDS011;46090;48.436;11.410;2022-09-09T06:49:41;4.43;;;1.40;;
60225;SDS011;46090;48.436;11.410;2022-09-09T06:52:17;3.60;;;1.20;;
60225;SDS011;46090;48.436;11.410;2022-09-09T06:54:47;3.78;;;1.60;;
60225;SDS011;46090;48.436;11.410;2022-09-09T06:57:15;3.78;;;1.52;;
60225;SDS011;46090;48.436;11.410;2022-09-09T07:00:05;6.97;;;1.10;;
60225;SDS011;46090;48.436;11.410;2022-09-09T07:02:35;5.22;;;1.35;;
60225;SDS011;46090;48.436;11.410;2022-09-09T07:05:08;2.83;;;1.00;;
60225;SDS011;46090;48.436;11.410;2022-09-09T07:07:36;4.25;;;1.33;;
60225;SDS011;46090;48.436;11.410;2022-09-09T07:10:05;4.88;;;1.23;;
60225;SDS011;46090;48.436;11.410;2022-09-09T07:12:36;3.53;;;1.02;;
60225;SDS011;46090;48.436;11.410;2022-09-09T07:15:10;5.65;;;1.10;;
60225;SDS011;46090;48.436;11.410;2022-09-09T07:17:41;6.13;;;1.63;;
60225;SDS011;46090;48.436;11.410;2022-09-09T07:20:09;3.95;;;1.17;;
60225;SDS011;46090;48.436;11.410;2022-09-09T07:22:37;5.32;;;1.95;;
60225;SDS011;46090;48.436;11.410;2022-09-09T07:25:06;3.97;;;1.30;;
60225;SDS011;46090;48.436;11.410;2022-09-09T07:27:36;4.57;;;1.38;;
60225;SDS011;46090;48.436;11.410;2022-09-09T07:30:06;4.90;;;1.35;;
60225;SDS011;46090;48.436;11.410;2022-09-09T07:32:36;4.60;;;1.20;;
60225;SDS011;46090;48.436;11.410;2022-09-09T07:35:04;3.85;;;1.45;;
60225;SDS011;46090;48.436;11.410;2022-09-09T07:37:36;3.72;;;1.08;;
60225;SDS011;46090;48.436;11.410;2022-09-09T07:40:06;5.95;;;1.30;;
60225;SDS011;46090;48.436;11.410;2022-09-09T07:42:34;2.67;;;1.15;;
60225;SDS011;46090;48.436;11.410;2022-09-09T07:45:03;6.28;;;1.40;;
60225;SDS011;46090;48.436;11.410;2022-09-09T07:47:33;4.53;;;1.30;;
60225;SDS011;46090;48.436;11.410;2022-09-09T07:50:02;5.03;;;1.50;;
60225;SDS011;46090;48.436;11.410;2022-09-09T07:52:33;7.07;;;1.70;;
60225;SDS011;46090;48.436;11.410;2022-09-09T07:55:08;4.85;;;1.50;;
60225;SDS011;46090;48.436;11.410;2022-09-09T07:57:38;5.30;;;1.35;;
60225;SDS011;46090;48.436;11.410;2022-09-09T08:00:08;5.75;;;1.48;;
60225;SDS011;46090;48.436;11.410;2022-09-09T08:02:45;3.35;;;1.27;;
60225;SDS011;46090;48.436;11.410;2022-09-09T08:05:14;4.03;;;1.13;;
60225;SDS011;46090;48.436;11.410;2022-09-09T08:07:47;4.97;;;1.40;;
60225;SDS011;46090;48.436;11.410;2022-09-09T08:10:15;4.35;;;0.98;;
60225;SDS011;46090;48.436;11.410;2022-09-09T08:12:46;5.20;;;1.40;;
60225;SDS011;46090;48.436;11.410;2022-09-09T08:15:38;6.55;;;1.00;;
60225;SDS011;46090;48.436;11.410;2022-09-09T08:18:06;3.42;;;1.23;;
60225;SDS011;46090;48.436;11.410;2022-09-09T08:20:35;4.63;;;1.20;;
60225;SDS011;46090;48.436;11.410;2022-09-09T08:23:05;7.30;;;1.45;;
60225;SDS011;46090;48.436;11.410;2022-09-09T08:25:32;2.28;;;0.63;;
60225;SDS011;46090;48.436;11.410;2022-09-09T08:28:01;2.80;;;0.95;;
60225;SDS011;46090;48.436;11.410;2022-09-09T08:30:30;3.65;;;1.50;;
60225;SDS011;46090;48.436;11.410;2022-09-09T08:32:58;3.40;;;1.15;;
60225;SDS011;46090;48.436;11.410;2022-09-09T08:35:26;5.72;;;1.20;;
60225;SDS011;46090;48.436;11.410;2022-09-09T08:37:54;5.35;;;1.77;;
60225;SDS011;46090;48.436;11.410;2022-09-09T08:40:22;5.82;;;1.50;;
60225;SDS011;46090;48.436;11.410;2022-09-09T08:42:54;5.18;;;1.00;;
60225;SDS011;46090;48.436;11.410;2022-09-09T08:45:25;3.72;;;1.10;;
60225;SDS011;46090;48.436;11.410;2022-09-09T08:48:27;4.35;;;1.08;;
60225;SDS011;46090;48.436;11.410;2022-09-09T08:50:58;3.25;;;1.15;;
60225;SDS011;46090;48.436;11.410;2022-09-09T08:53:36;3.88;;;0.93;;
60225;SDS011;46090;48.436;11.410;2022-09-09T08:56:18;5.93;;;1.23;;
60225;SDS011;46090;48.436;11.410;2022-09-09T08:58:52;5.80;;;1.20;;
60225;SDS011;46090;48.436;11.410;2022-09-09T09:01:57;3.80;;;0.95;;
60225;SDS011;46090;48.436;11.410;2022-09-09T09:04:41;3.22;;;0.93;;
60225;SDS011;46090;48.436;11.410;2022-09-09T09:13:12;4.13;;;1.10;;
60225;SDS011;46090;48.436;11.410;2022-09-09T09:15:44;2.80;;;0.88;;
60225;SDS011;46090;48.436;11.410;2022-09-09T09:18:13;2.00;;;0.63;;
60225;SDS011;46090;48.436;11.410;2022-09-09T09:23:57;3.13;;;0.93;;
60225;SDS011;46090;48.436;11.410;2022-09-09T09:26:32;4.75;;;0.98;;
60225;SDS011;46090;48.436;11.410;2022-09-09T09:29:13;3.47;;;0.60;;
60225;SDS011;46090;48.436;11.410;2022-09-09T09:31:53;4.88;;;0.50;;
60225;SDS011;46090;48.436;11.410;2022-09-09T09:34:23;2.42;;;0.70;;
60225;SDS011;46090;48.436;11.410;2022-09-09T09:36:53;2.47;;;0.60;;
60225;SDS011;46090;48.436;11.410;2022-09-09T09:39:29;3.72;;;0.57;;
60225;SDS011;46090;48.436;11.410;2022-09-09T09:42:26;3.97;;;0.40;;
60225;SDS011;46090;48.436;11.410;2022-09-09T09:44:55;2.75;;;0.60;;
60225;SDS011;46090;48.436;11.410;2022-09-09T09:47:22;1.85;;;0.60;;
60225;SDS011;46090;48.436;11.410;2022-09-09T09:50:00;3.50;;;0.85;;
60225;SDS011;46090;48.436;11.410;2022-09-09T09:52:35;4.10;;;0.60;;
60225;SDS011;46090;48.436;11.410;2022-09-09T09:55:03;2.90;;;0.70;;
60225;SDS011;46090;48.436;11.410;2022-09-09T09:57:35;1.20;;;0.40;;
60225;SDS011;46090;48.436;11.410;2022-09-09T10:00:18;2.67;;;0.63;;
60225;SDS011;46090;48.436;11.410;2022-09-09T10:02:56;3.08;;;0.90;;
60225;SDS011;46090;48.436;11.410;2022-09-09T10:05:30;2.78;;;0.50;;
60225;SDS011;46090;48.436;11.410;2022-09-09T10:08:10;3.55;;;0.70;;
60225;SDS011;46090;48.436;11.410;2022-09-09T10:19:19;1.63;;;0.50;;
60225;SDS011;46090;48.436;11.410;2022-09-09T10:27:38;2.00;;;0.40;;
60225;SDS011;46090;48.436;11.410;2022-09-09T10:30:14;2.10;;;0.50;;
60225;SDS011;46090;48.436;11.410;2022-09-09T10:32:46;1.65;;;0.40;;
60225;SDS011;46090;48.436;11.410;2022-09-09T10:38:13;3.08;;;0.47;;
60225;SDS011;46090;48.436;11.410;2022-09-09T10:52:09;3.08;;;0.52;;
60225;SDS011;46090;48.436;11.410;2022-09-09T11:00:21;2.70;;;0.40;;
60225;SDS011;46090;48.436;11.410;2022-09-09T11:03:14;2.13;;;0.30;;
60225;SDS011;46090;48.436;11.410;2022-09-09T11:05:42;3.20;;;0.30;;
60225;SDS011;46090;48.436;11.410;2022-09-09T11:08:27;2.72;;;0.60;;
60225;SDS011;46090;48.436;11.410;2022-09-09T11:18:47;3.30;;;0.40;;
60225;SDS011;46090;48.436;11.410;2022-09-09T11:21:27;1.35;;;0.30;;
60225;SDS011;46090;48.436;11.410;2022-09-09T11:23:57;2.60;;;0.47;;
60225;SDS011;46090;48.436;11.410;2022-09-09T11:26:32;3.05;;;0.40;;
60225;SDS011;46090;48.436;11.410;2022-09-09T11:35:42;2.20;;;0.60;;
60225;SDS011;46090;48.436;11.410;2022-09-09T11:41:07;2.58;;;0.52;;
60225;SDS011;46090;48.436;11.410;2022-09-09T11:43:47;3.13;;;0.60;;
60225;SDS011;46090;48.436;11.410;2022-09-09T11:46:15;3.20;;;0.52;;
60225;SDS011;46090;48.436;11.410;2022-09-09T11:48:45;2.00;;;0.50;;
60225;SDS011;46090;48.436;11.410;2022-09-09T11:51:28;3.28;;;0.65;;
60225;SDS011;46090;48.436;11.410;2022-09-09T11:53:58;3.30;;;0.57;;
60225;SDS011;46090;48.436;11.410;2022-09-09T11:56:33;3.40;;;0.50;;
60225;SDS011;46090;48.436;11.410;2022-09-09T11:59:21;3.53;;;0.45;;
60225;SDS011;46090;48.436;11.410;2022-09-09T12:02:01;2.47;;;0.52;;
60225;SDS011;46090;48.436;11.410;2022-09-09T12:04:32;2.42;;;0.50;;
60225;SDS011;46090;48.436;11.410;2022-09-09T12:09:45;2.67;;;0.52;;
60225;SDS011;46090;48.436;11.410;2022-09-09T12:17:27;1.35;;;0.20;;
60225;SDS011;46090;48.436;11.410;2022-09-09T12:20:00;3.83;;;0.98;;
60225;SDS011;46090;48.436;11.410;2022-09-09T12:30:37;2.95;;;0.38;;
60225;SDS011;46090;48.436;11.410;2022-09-09T12:33:24;2.97;;;0.40;;
60225;SDS011;46090;48.436;11.410;2022-09-09T12:35:57;3.58;;;0.40;;
60225;SDS011;46090;48.436;11.410;2022-09-09T12:38:36;4.30;;;0.30;;
60225;SDS011;46090;48.436;11.410;2022-09-09T12:41:06;3.70;;;0.57;;
60225;SDS011;46090;48.436;11.410;2022-09-09T12:43:43;3.10;;;0.25;;
60225;SDS011;46090;48.436;11.410;2022-09-09T12:46:15;3.30;;;0.45;;
60225;SDS011;46090;48.436;11.410;2022-09-09T12:48:50;1.90;;;0.40;;
60225;SDS011;46090;48.436;11.410;2022-09-09T12:51:39;5.65;;;0.30;;
60225;SDS011;46090;48.436;11.410;2022-09-09T12:54:12;1.23;;;0.28;;
60225;SDS011;46090;48.436;11.410;2022-09-09T12:56:44;1.70;;;0.30;;
60225;SDS011;46090;48.436;11.410;2022-09-09T12:59:21;4.22;;;0.45;;
60225;SDS011;46090;48.436;11.410;2022-09-09T13:01:59;2.45;;;0.30;;
60225;SDS011;46090;48.436;11.410;2022-09-09T13:04:28;1.33;;;0.20;;
60225;SDS011;46090;48.436;11.410;2022-09-09T13:07:07;1.50;;;0.40;;
60225;SDS011;46090;48.436;11.410;2022-09-09T13:09:36;2.25;;;0.30;;
60225;SDS011;46090;48.436;11.410;2022-09-09T13:12:03;1.60;;;0.20;;
60225;SDS011;46090;48.436;11.410;2022-09-09T13:14:53;3.40;;;0.20;;
60225;SDS011;46090;48.436;11.410;2022-09-09T13:17:24;6.43;;;0.20;;
60225;SDS011;46090;48.436;11.410;2022-09-09T13:19:53;1.30;;;0.20;;
60225;SDS011;46090;48.436;11.410;2022-09-09T13:22:27;3.17;;;0.30;;
60225;SDS011;46090;48.436;11.410;2022-09-09T13:27:39;1.98;;;0.30;;
60225;SDS011;46090;48.436;11.410;2022-09-09T13:35:54;2.53;;;0.30;;
60225;SDS011;46090;48.436;11.410;2022-09-09T13:38:25;3.83;;;0.40;;
60225;SDS011;46090;48.436;11.410;2022-09-09T13:40:55;1.30;;;0.30;;
60225;SDS011;46090;48.436;11.410;2022-09-09T13:43:25;1.85;;;0.22;;
60225;SDS011;46090;48.436;11.410;2022-09-09T13:45:53;2.95;;;0.30;;
60225;SDS011;46090;48.436;11.410;2022-09-09T13:48:29;2.70;;;0.30;;
60225;SDS011;46090;48.436;11.410;2022-09-09T13:50:59;1.10;;;0.20;;
60225;SDS011;46090;48.436;11.410;2022-09-09T13:53:28;3.05;;;0.35;;
60225;SDS011;46090;48.436;11.410;2022-09-09T13:55:56;3.00;;;0.30;;
60225;SDS011;46090;48.436;11.410;2022-09-09T13:58:23;1.80;;;0.20;;
60225;SDS011;46090;48.436;11.410;2022-09-09T14:00:52;3.00;;;0.20;;
60225;SDS011;46090;48.436;11.410;2022-09-09T14:03:23;1.30;;;0.20;;
60225;SDS011;46090;48.436;11.410;2022-09-09T14:05:51;2.15;;;0.30;;
60225;SDS011;46090;48.436;11.410;2022-09-09T14:08:22;2.15;;;0.30;;
60225;SDS011;46090;48.436;11.410;2022-09-09T14:10:51;2.05;;;0.28;;
60225;SDS011;46090;48.436;11.410;2022-09-09T14:13:19;1.27;;;0.20;;
60225;SDS011;46090;48.436;11.410;2022-09-09T14:15:50;1.67;;;0.30;;
60225;SDS011;46090;48.436;11.410;2022-09-09T14:18:19;5.45;;;0.38;;
60225;SDS011;46090;48.436;11.410;2022-09-09T14:20:59;6.38;;;0.30;;
60225;SDS011;46090;48.436;11.410;2022-09-09T14:23:27;3.45;;;0.40;;
60225;SDS011;46090;48.436;11.410;2022-09-09T14:25:54;3.00;;;0.30;;
60225;SDS011;46090;48.436;11.410;2022-09-09T14:28:21;3.95;;;0.30;;
60225;SDS011;46090;48.436;11.410;2022-09-09T14:31:08;3.28;;;0.20;;
60225;SDS011;46090;48.436;11.410;2022-09-09T14:33:37;1.45;;;0.20;;
60225;SDS011;46090;48.436;11.410;2022-09-09T14:36:04;2.05;;;0.30;;
60225;SDS011;46090;48.436;11.410;2022-09-09T14:38:32;2.33;;;0.20;;
60225;SDS011;46090;48.436;11.410;2022-09-09T14:41:00;1.77;;;0.38;;
60225;SDS011;46090;48.436;11.410;2022-09-09T14:43:29;4.40;;;0.40;;
60225;SDS011;46090;48.436;11.410;2022-09-09T14:46:03;3.75;;;0.40;;
60225;SDS011;46090;48.436;11.410;2022-09-09T14:51:10;2.15;;;0.20;;
60225;SDS011;46090;48.436;11.410;2022-09-09T14:53:51;1.83;;;0.32;;
60225;SDS011;46090;48.436;11.410;2022-09-09T14:56:21;2.15;;;0.30;;
60225;SDS011;46090;48.436;11.410;2022-09-09T14:58:49;1.85;;;0.30;;
60225;SDS011;46090;48.436;11.410;2022-09-09T15:01:17;5.15;;;0.90;;
60225;SDS011;46090;48.436;11.410;2022-09-09T15:03:52;3.95;;;0.30;;
60225;SDS011;46090;48.436;11.410;2022-09-09T15:06:21;3.13;;;0.28;;
60225;SDS011;46090;48.436;11.410;2022-09-09T15:08:50;5.10;;;0.20;;
60225;SDS011;46090;48.436;11.410;2022-09-09T15:11:19;1.92;;;0.30;;
60225;SDS011;46090;48.436;11.410;2022-09-09T15:13:46;2.38;;;0.10;;
60225;SDS011;46090;48.436;11.410;2022-09-09T15:16:16;5.22;;;0.20;;
60225;SDS011;46090;48.436;11.410;2022-09-09T15:18:45;2.58;;;0.10;;
60225;SDS011;46090;48.436;11.410;2022-09-09T15:21:13;3.45;;;0.20;;
60225;SDS011;46090;48.436;11.410;2022-09-09T15:23:42;3.25;;;0.20;;
60225;SDS011;46090;48.436;11.410;2022-09-09T15:26:09;2.25;;;0.20;;
60225;SDS011;46090;48.436;11.410;2022-09-09T15:28:37;1.00;;;0.10;;
60225;SDS011;46090;48.436;11.410;2022-09-09T15:31:05;0.85;;;0.10;;
60225;SDS011;46090;48.436;11.410;2022-09-09T15:33:33;1.17;;;0.10;;
60225;SDS011;46090;48.436;11.410;2022-09-09T15:36:13;2.13;;;0.20;;
60225;SDS011;46090;48.436;11.410;2022-09-09T15:38:42;3.45;;;0.40;;
60225;SDS011;46090;48.436;11.410;2022-09-09T15:41:10;1.70;;;0.10;;
60225;SDS011;46090;48.436;11.410;2022-09-09T15:43:38;1.17;;;0.13;;
60225;SDS011;46090;48.436;11.410;2022-09-09T15:46:18;1.55;;;0.10;;
60225;SDS011;46090;48.436;11.410;2022-09-09T15:49:42;0.38;;;0.03;;
60225;SDS011;46090;48.436;11.410;2022-09-09T15:52:02;1.15;;;0.20;;
60225;SDS011;46090;48.436;11.410;2022-09-09T15:54:34;1.85;;;0.30;;
60225;SDS011;46090;48.436;11.410;2022-09-09T15:57:04;0.15;;;0.05;;
60225;SDS011;46090;48.436;11.410;2022-09-09T15:59:31;1.55;;;0.10;;
60225;SDS011;46090;48.436;11.410;2022-09-09T16:02:00;2.08;;;0.20;;
60225;SDS011;46090;48.436;11.410;2022-09-09T16:04:27;0.63;;;0.00;;
60225;SDS011;46090;48.436;11.410;2022-09-09T16:06:56;4.63;;;0.10;;
60225;SDS011;46090;48.436;11.410;2022-09-09T16:09:27;0.50;;;0.10;;
60225;SDS011;46090;48.436;11.410;2022-09-09T16:11:58;0.93;;;0.13;;
60225;SDS011;46090;48.436;11.410;2022-09-09T16:14:34;2.10;;;0.15;;
60225;SDS011;46090;48.436;11.410;2022-09-09T16:17:02;1.92;;;0.43;;
60225;SDS011;46090;48.436;11.410;2022-09-09T16:19:31;3.15;;;0.20;;
60225;SDS011;46090;48.436;11.410;2022-09-09T16:21:58;2.55;;;0.20;;
60225;SDS011;46090;48.436;11.410;2022-09-09T16:24:24;1.42;;;0.20;;
60225;SDS011;46090;48.436;11.410;2022-09-09T16:26:52;1.00;;;0.20;;
60225;SDS011;46090;48.436;11.410;2022-09-09T16:29:21;1.75;;;0.30;;
60225;SDS011;46090;48.436;11.410;2022-09-09T16:31:49;2.53;;;0.20;;
60225;SDS011;46090;48.436;11.410;2022-09-09T16:34:17;1.60;;;0.22;;
60225;SDS011;46090;48.436;11.410;2022-09-09T16:36:46;2.38;;;0.20;;
60225;SDS011;46090;48.436;11.410;2022-09-09T16:39:17;2.20;;;0.20;;
60225;SDS011;46090;48.436;11.410;2022-09-09T16:41:46;1.90;;;0.30;;
60225;SDS011;46090;48.436;11.410;2022-09-09T16:44:16;1.10;;;0.28;;
60225;SDS011;46090;48.436;11.410;2022-09-09T16:46:46;1.10;;;0.10;;
60225;SDS011;46090;48.436;11.410;2022-09-09T16:49:15;2.20;;;0.40;;
60225;SDS011;46090;48.436;11.410;2022-09-09T16:51:44;1.33;;;0.20;;
60225;SDS011;46090;48.436;11.410;2022-09-09T16:54:15;2.83;;;0.30;;
60225;SDS011;46090;48.436;11.410;2022-09-09T16:56:45;1.30;;;0.15;;
60225;SDS011;46090;48.436;11.410;2022-09-09T16:59:15;2.58;;;0.35;;
60225;SDS011;46090;48.436;11.410;2022-09-09T17:01:47;4.50;;;0.25;;
60225;SDS011;46090;48.436;11.410;2022-09-09T17:04:18;2.65;;;0.40;;
60225;SDS011;46090;48.436;11.410;2022-09-09T17:06:49;0.43;;;0.13;;
60225;SDS011;46090;48.436;11.410;2022-09-09T17:09:18;3.60;;;0.70;;
60225;SDS011;46090;48.436;11.410;2022-09-09T17:11:47;2.55;;;0.35;;
60225;SDS011;46090;48.436;11.410;2022-09-09T17:14:16;4.40;;;0.20;;
60225;SDS011;46090;48.436;11.410;2022-09-09T17:16:44;1.50;;;0.40;;
60225;SDS011;46090;48.436;11.410;2022-09-09T17:19:12;1.85;;;0.25;;
60225;SDS011;46090;48.436;11.410;2022-09-09T17:21:41;3.35;;;0.28;;
60225;SDS011;46090;48.436;11.410;2022-09-09T17:24:29;3.15;;;0.40;;
60225;SDS011;46090;48.436;11.410;2022-09-09T17:26:57;2.22;;;0.25;;